createdAt,value
2018-07-04T00:00:12.072Z,24.19
2018-07-04T00:02:52.485Z,24.20
2018-07-04T00:05:32.947Z,24.12
2018-07-04T00:08:12.796Z,24.09
2018-07-04T00:10:53.049Z,24.04
2018-07-04T00:13:32.826Z,23.84
2018-07-04T00:16:12.566Z,23.67
2018-07-04T00:18:53.010Z,23.52
2018-07-04T00:21:32.739Z,23.53
2018-07-04T00:24:12.496Z,23.56
2018-07-04T00:26:52.946Z,23.60
2018-07-04T00:29:33.366Z,23.57
2018-07-04T00:32:13.825Z,23.60
2018-07-04T00:34:53.678Z,23.55
2018-07-04T00:37:33.768Z,23.37
2018-07-04T00:40:13.685Z,23.34
2018-07-04T00:42:53.398Z,23.37
2018-07-04T00:45:33.907Z,23.48
2018-07-04T00:48:13.658Z,23.59
2018-07-04T00:50:53.416Z,23.63
2018-07-04T00:53:32.933Z,23.72
2018-07-04T00:56:12.461Z,23.79
2018-07-04T00:58:53.074Z,23.76
2018-07-04T01:01:33.011Z,23.79
2018-07-04T01:04:12.877Z,23.81
2018-07-04T01:06:52.647Z,23.80
2018-07-04T01:09:32.172Z,23.84
2018-07-04T01:12:11.937Z,23.81
2018-07-04T01:14:51.663Z,23.82
2018-07-04T01:17:31.533Z,23.75
2018-07-04T01:20:11.215Z,23.77
2018-07-04T01:22:50.982Z,23.77
2018-07-04T01:25:30.725Z,23.75
2018-07-04T01:28:10.629Z,23.74
2018-07-04T01:30:51.355Z,23.72
2018-07-04T01:33:31.101Z,23.73
2018-07-04T01:36:11.047Z,23.75
2018-07-04T01:38:50.960Z,23.73
2018-07-04T01:41:30.665Z,23.64
2018-07-04T01:44:10.554Z,23.56
2018-07-04T01:46:50.246Z,23.40
2018-07-04T01:49:29.897Z,23.32
2018-07-04T01:52:09.729Z,23.23
2018-07-04T01:54:49.876Z,23.22
2018-07-04T01:57:29.534Z,23.17
2018-07-04T02:00:10.331Z,23.14
2018-07-04T02:02:50.160Z,23.14
2018-07-04T02:05:29.897Z,23.14
2018-07-04T02:08:10.333Z,23.15
2018-07-04T02:10:50.232Z,23.10
2018-07-04T02:13:29.933Z,23.10
2018-07-04T02:16:09.639Z,23.01
2018-07-04T02:18:49.609Z,23.01
2018-07-04T02:21:29.285Z,22.98
2018-07-04T02:24:10.288Z,22.89
2018-07-04T02:26:50.185Z,22.80
2018-07-04T02:29:30.070Z,22.82
2018-07-04T02:32:10.504Z,22.68
2018-07-04T02:34:50.642Z,22.73
2018-07-04T02:37:30.190Z,22.62
2018-07-04T02:40:09.720Z,22.61
2018-07-04T02:42:49.577Z,22.60
2018-07-04T02:45:29.443Z,22.53
2018-07-04T02:48:09.183Z,22.49
2018-07-04T02:50:49.617Z,22.43
2018-07-04T02:53:29.448Z,22.40
2018-07-04T02:56:09.253Z,22.35
2018-07-04T02:58:49.128Z,22.36
2018-07-04T03:01:30.383Z,22.29
2018-07-04T03:04:10.436Z,22.20
2018-07-04T03:06:50.238Z,22.15
2018-07-04T03:09:29.972Z,22.16
2018-07-04T03:12:09.830Z,22.10
2018-07-04T03:14:50.144Z,22.06
2018-07-04T03:17:30.104Z,22.07
2018-07-04T03:20:09.658Z,22.05
2018-07-04T03:22:49.614Z,22.01
2018-07-04T03:25:29.429Z,21.91
2018-07-04T03:28:09.453Z,21.92
2018-07-04T03:30:49.619Z,21.91
2018-07-04T03:33:29.433Z,21.72
2018-07-04T03:36:10.586Z,21.90
2018-07-04T03:38:50.636Z,21.89
2018-07-04T03:41:30.589Z,21.89
2018-07-04T03:44:10.281Z,21.92
2018-07-04T03:46:49.900Z,21.89
2018-07-04T03:49:30.285Z,21.86
2018-07-04T03:52:10.336Z,21.84
2018-07-04T03:54:50.389Z,21.77
2018-07-04T03:57:30.698Z,21.75
2018-07-04T04:00:10.481Z,21.81
2018-07-04T04:02:50.243Z,21.82
2018-07-04T04:05:30.054Z,21.89
2018-07-04T04:08:09.786Z,21.92
2018-07-04T04:10:49.509Z,21.96
2018-07-04T04:13:29.332Z,21.99
2018-07-04T04:16:09.035Z,21.95
2018-07-04T04:18:48.761Z,21.84
2018-07-04T04:21:28.574Z,21.90
2018-07-04T04:24:08.452Z,21.96
2018-07-04T04:26:48.274Z,22.02
2018-07-04T04:29:28.211Z,22.13
2018-07-04T04:32:08.280Z,22.25
2018-07-04T04:34:48.874Z,22.33
2018-07-04T04:37:29.331Z,22.41
2018-07-04T04:40:09.725Z,22.50
2018-07-04T04:42:49.426Z,22.61
2018-07-04T04:45:29.121Z,22.68
2018-07-04T04:48:08.997Z,22.77
2018-07-04T04:50:48.579Z,22.82
2018-07-04T04:53:28.270Z,22.77
2018-07-04T04:56:08.224Z,22.72
2018-07-04T04:58:47.922Z,22.74
2018-07-04T05:01:27.847Z,22.78
2018-07-04T05:04:09.209Z,22.83
2018-07-04T05:06:49.649Z,22.89
2018-07-04T05:09:29.451Z,22.82
2018-07-04T05:12:09.401Z,22.63
2018-07-04T05:14:49.243Z,22.44
2018-07-04T05:17:29.141Z,22.40
2018-07-04T05:20:08.839Z,22.23
2018-07-04T05:22:48.555Z,22.15
2018-07-04T05:25:29.001Z,22.25
2018-07-04T05:28:08.854Z,22.17
2018-07-04T05:30:48.462Z,22.17
2018-07-04T05:33:28.153Z,22.22
2018-07-04T05:36:08.215Z,22.38
2018-07-04T05:38:48.055Z,22.53
2018-07-04T05:41:28.077Z,22.61
2018-07-04T05:44:07.711Z,22.61
2018-07-04T05:46:47.613Z,22.62
2018-07-04T05:49:27.263Z,22.61
2018-07-04T05:52:07.043Z,22.49
2018-07-04T05:54:46.680Z,22.82
2018-07-04T05:57:26.627Z,23.09
2018-07-04T06:00:06.304Z,23.28
2018-07-04T06:02:46.081Z,23.42
2018-07-04T06:05:25.890Z,23.59
2018-07-04T06:08:05.646Z,23.77
2018-07-04T06:10:45.384Z,23.97
2018-07-04T06:13:25.002Z,24.00
2018-07-04T06:16:04.704Z,24.20
2018-07-04T06:18:45.393Z,24.18
2018-07-04T06:21:25.146Z,24.28
2018-07-04T06:24:04.911Z,24.41
2018-07-04T06:26:45.038Z,24.50
2018-07-04T06:29:25.021Z,24.53
2018-07-04T06:32:05.008Z,24.65
2018-07-04T06:34:44.645Z,24.73
2018-07-04T06:37:25.602Z,24.81
2018-07-04T06:39:52.930Z,24.88
2018-07-04T06:42:20.290Z,24.91
2018-07-04T06:44:48.068Z,25.03
2018-07-04T06:47:15.440Z,25.14
2018-07-04T06:49:43.479Z,25.19
2018-07-04T06:52:11.008Z,25.18
2018-07-04T06:54:38.649Z,25.25
2018-07-04T06:57:06.022Z,25.21
2018-07-04T06:59:33.982Z,25.31
2018-07-04T07:02:12.190Z,25.42
2018-07-04T07:04:53.953Z,25.36
2018-07-04T07:07:34.291Z,25.41
2018-07-04T07:10:14.025Z,25.60
2018-07-04T07:12:53.834Z,25.52
2018-07-04T07:15:34.838Z,25.22
2018-07-04T07:18:15.356Z,25.51
2018-07-04T07:20:55.047Z,25.59
2018-07-04T07:23:34.773Z,25.76
2018-07-04T07:26:14.737Z,25.99
2018-07-04T07:28:54.855Z,25.84
2018-07-04T07:31:34.589Z,26.11
2018-07-04T07:34:14.363Z,26.16
2018-07-04T07:36:53.939Z,26.43
2018-07-04T07:39:33.900Z,26.61
2018-07-04T07:42:14.317Z,26.67
2018-07-04T07:44:53.977Z,26.81
2018-07-04T07:47:33.730Z,27.02
2018-07-04T07:50:13.973Z,27.21
2018-07-04T07:52:54.203Z,27.17
2018-07-04T07:55:33.888Z,27.37
2018-07-04T07:58:14.007Z,27.39
2018-07-04T08:00:54.102Z,27.40
2018-07-04T08:03:34.456Z,27.45
2018-07-04T08:06:14.198Z,27.45
2018-07-04T08:08:53.932Z,27.50
2018-07-04T08:11:34.139Z,27.80
2018-07-04T08:14:14.539Z,28.04
2018-07-04T08:16:54.361Z,28.22
2018-07-04T08:19:34.022Z,28.32
2018-07-04T08:22:13.674Z,28.28
2018-07-04T08:24:53.435Z,28.27
2018-07-04T08:27:33.095Z,28.33
2018-07-04T08:30:13.312Z,28.29
2018-07-04T08:32:53.029Z,28.30
2018-07-04T08:35:33.304Z,28.32
2018-07-04T08:38:13.412Z,28.40
2018-07-04T08:40:53.085Z,28.46
2018-07-04T08:43:32.954Z,28.66
2018-07-04T08:46:12.697Z,28.77
2018-07-04T08:48:52.391Z,28.86
2018-07-04T08:51:33.239Z,29.17
2018-07-04T08:54:12.970Z,29.11
2018-07-04T08:56:53.397Z,29.26
2018-07-04T08:59:33.040Z,29.43
2018-07-04T09:02:12.748Z,29.49
2018-07-04T09:04:52.455Z,29.60
2018-07-04T09:07:32.124Z,29.72
2018-07-04T09:10:12.017Z,29.77
2018-07-04T09:12:51.875Z,29.97
2018-07-04T09:15:31.551Z,29.79
2018-07-04T09:18:11.697Z,29.72
2018-07-04T09:20:52.216Z,29.59
2018-07-04T09:23:31.965Z,29.75
2018-07-04T09:26:12.175Z,29.73
2018-07-04T09:28:52.839Z,29.80
2018-07-04T09:31:32.681Z,29.80
2018-07-04T09:34:12.418Z,29.65
2018-07-04T09:36:52.071Z,29.61
2018-07-04T09:39:31.816Z,29.76
2018-07-04T09:42:11.398Z,29.62
2018-07-04T09:44:51.129Z,29.56
2018-07-04T09:47:30.898Z,29.55
2018-07-04T09:50:10.690Z,29.41
2018-07-04T09:57:49.838Z,28.65
2018-07-04T10:00:30.484Z,28.20
2018-07-04T10:03:11.165Z,27.90
2018-07-04T10:05:51.118Z,27.57
2018-07-04T10:08:31.007Z,27.24
2018-07-04T10:11:10.560Z,26.78
2018-07-04T10:13:50.470Z,26.46
2018-07-04T10:16:30.173Z,26.11
2018-07-04T10:19:09.974Z,26.00
2018-07-04T10:21:49.707Z,26.07
2018-07-04T10:24:29.468Z,26.31
2018-07-04T10:27:09.386Z,26.61
2018-07-04T10:29:49.075Z,26.65
2018-07-04T10:32:28.836Z,26.91
2018-07-04T10:35:08.659Z,26.93
2018-07-04T10:37:48.408Z,26.88
2018-07-04T10:40:28.273Z,26.77
2018-07-04T10:43:08.400Z,26.56
2018-07-04T10:45:48.053Z,26.70
2018-07-04T10:48:28.648Z,26.84
2018-07-04T10:51:08.769Z,26.50
2018-07-04T10:53:48.382Z,26.36
2018-07-04T10:56:28.226Z,26.40
2018-07-04T10:59:07.918Z,26.39
2018-07-04T11:01:47.550Z,26.18
2018-07-04T11:04:27.770Z,26.31
2018-07-04T11:07:07.628Z,26.56
2018-07-04T11:09:47.489Z,26.08
2018-07-04T11:12:27.054Z,25.80
2018-07-04T11:15:06.755Z,25.90
2018-07-04T11:17:46.417Z,26.17
2018-07-04T11:20:26.086Z,26.17
2018-07-04T11:23:05.788Z,26.45
2018-07-04T11:25:45.505Z,26.62
2018-07-04T11:28:25.384Z,26.29
2018-07-04T11:31:05.681Z,26.35
2018-07-04T11:33:45.573Z,26.55
2018-07-04T11:36:25.281Z,26.70
2018-07-04T11:39:04.837Z,26.83
2018-07-04T11:41:44.598Z,26.98
2018-07-04T11:44:24.292Z,27.13
2018-07-04T11:46:51.667Z,27.27
2018-07-04T11:49:18.999Z,27.45
2018-07-04T11:51:46.331Z,27.58
2018-07-04T11:54:13.683Z,27.52
2018-07-04T11:56:41.142Z,27.32
2018-07-04T11:59:08.490Z,27.79
2018-07-04T12:01:35.812Z,28.03
2018-07-04T12:04:15.536Z,28.18
2018-07-04T12:06:55.128Z,28.20
2018-07-04T12:09:22.445Z,28.29
2018-07-04T12:11:49.786Z,28.50
2018-07-04T12:14:17.086Z,28.47
2018-07-04T12:16:44.461Z,28.70
2018-07-04T12:19:11.883Z,28.86
2018-07-04T12:21:39.235Z,28.87
2018-07-04T12:24:06.542Z,28.99
2018-07-04T12:26:33.883Z,29.10
2018-07-04T12:29:01.216Z,29.14
2018-07-04T12:31:28.597Z,28.95
2018-07-04T12:33:55.923Z,29.26
2018-07-04T12:36:23.296Z,29.11
2018-07-04T12:38:50.673Z,29.43
2018-07-04T12:41:18.146Z,29.60
2018-07-04T12:43:45.477Z,29.81
2018-07-04T12:46:12.793Z,29.72
2018-07-04T12:48:40.182Z,29.73
2018-07-04T12:51:07.842Z,29.89
2018-07-04T12:53:35.283Z,30.41
2018-07-04T12:56:15.063Z,31.04
2018-07-04T12:58:54.820Z,32.04
2018-07-04T13:01:34.486Z,32.81
2018-07-04T13:04:14.841Z,32.52
2018-07-04T13:06:54.663Z,32.36
2018-07-04T13:09:34.424Z,32.30
2018-07-04T13:12:14.302Z,32.62
2018-07-04T13:14:53.996Z,32.92
2018-07-04T13:17:34.113Z,33.34
2018-07-04T13:20:13.855Z,33.71
2018-07-04T13:22:53.550Z,33.82
2018-07-04T13:25:33.410Z,34.54
2018-07-04T13:28:13.149Z,34.90
2018-07-04T13:30:52.644Z,34.95
2018-07-04T13:33:32.366Z,35.33
2018-07-04T13:36:12.119Z,34.92
2018-07-04T13:38:51.922Z,34.91
2018-07-04T13:41:32.795Z,34.74
2018-07-04T13:44:13.043Z,34.61
2018-07-04T13:46:52.876Z,33.97
2018-07-04T13:49:32.747Z,34.44
2018-07-04T13:52:12.641Z,34.46
2018-07-04T13:54:52.376Z,35.22
2018-07-04T13:57:32.152Z,35.32
2018-07-04T14:00:13.096Z,35.17
2018-07-04T14:02:52.773Z,35.09
2018-07-04T14:05:32.530Z,34.59
2018-07-04T14:08:12.480Z,33.75
2018-07-04T14:10:52.737Z,32.78
2018-07-04T14:13:32.686Z,32.52
2018-07-04T14:16:12.458Z,32.04
2018-07-04T14:18:52.423Z,31.63
2018-07-04T14:21:32.091Z,31.73
2018-07-04T14:24:12.793Z,31.53
2018-07-04T14:26:52.641Z,31.15
2018-07-04T14:29:32.431Z,30.84
2018-07-04T14:32:12.776Z,30.60
2018-07-04T14:34:52.551Z,30.29
2018-07-04T14:37:32.276Z,30.19
2018-07-04T14:40:12.142Z,30.29
2018-07-04T14:42:52.035Z,30.37
2018-07-04T14:45:33.664Z,30.05
2018-07-04T14:48:13.578Z,30.22
2018-07-04T14:50:53.847Z,30.03
2018-07-04T14:53:33.473Z,30.19
2018-07-04T14:56:13.372Z,30.37
2018-07-04T14:58:53.089Z,30.16
2018-07-04T15:01:32.909Z,30.10
2018-07-04T15:04:12.802Z,30.25
2018-07-04T15:06:52.583Z,30.40
2018-07-04T15:09:32.440Z,30.58
2018-07-04T15:12:12.307Z,30.60
2018-07-04T15:14:51.950Z,30.78
2018-07-04T15:17:31.776Z,30.83
2018-07-04T15:20:11.627Z,31.00
2018-07-04T15:22:51.732Z,31.00
2018-07-04T15:25:31.383Z,31.06
2018-07-04T15:28:11.059Z,31.07
2018-07-04T15:30:51.272Z,30.93
2018-07-04T15:33:31.002Z,30.97
2018-07-04T15:36:10.935Z,31.08
2018-07-04T15:38:50.555Z,30.62
2018-07-04T15:41:30.533Z,30.23
2018-07-04T15:44:11.417Z,30.24
2018-07-04T15:46:51.897Z,30.19
2018-07-04T15:49:31.792Z,30.09
2018-07-04T15:52:11.668Z,30.15
2018-07-04T15:54:51.985Z,29.87
2018-07-04T15:57:32.442Z,30.05
2018-07-04T16:00:12.542Z,29.77
2018-07-04T16:02:53.666Z,29.67
2018-07-04T16:05:33.383Z,29.69
2018-07-04T16:08:13.416Z,29.39
2018-07-04T16:10:53.329Z,29.56
2018-07-04T16:13:33.056Z,29.61
2018-07-04T16:16:12.711Z,29.39
2018-07-04T16:18:52.535Z,29.47
2018-07-04T16:21:32.263Z,29.40
2018-07-04T16:24:12.708Z,29.15
2018-07-04T16:26:52.943Z,29.17
2018-07-04T16:29:32.837Z,29.41
2018-07-04T16:32:12.849Z,29.31
2018-07-04T16:34:52.640Z,29.41
2018-07-04T16:37:32.457Z,29.49
2018-07-04T16:40:12.226Z,29.32
2018-07-04T16:42:51.979Z,29.42
2018-07-04T16:45:32.144Z,29.17
2018-07-04T16:48:11.946Z,29.17
2018-07-04T16:50:51.636Z,29.12
2018-07-04T16:53:31.448Z,28.73
2018-07-04T16:56:11.404Z,28.64
2018-07-04T16:58:51.280Z,28.67
2018-07-04T17:01:31.194Z,28.62
2018-07-04T17:04:11.526Z,28.52
2018-07-04T17:06:51.383Z,28.34
2018-07-04T17:09:31.157Z,28.50
2018-07-04T17:12:10.912Z,28.60
2018-07-04T17:14:50.518Z,28.65
2018-07-04T17:17:30.694Z,28.28
2018-07-04T17:20:11.167Z,28.30
2018-07-04T17:22:50.943Z,28.36
2018-07-04T17:25:30.750Z,28.53
2018-07-04T17:28:10.439Z,28.58
2018-07-04T17:30:50.109Z,28.56
2018-07-04T17:33:29.855Z,28.45
2018-07-04T17:36:10.749Z,28.43
2018-07-04T17:38:50.907Z,28.46
2018-07-04T17:41:30.934Z,28.30
2018-07-04T17:44:10.769Z,28.16
2018-07-04T17:46:50.797Z,28.16
2018-07-04T17:49:30.618Z,28.06
2018-07-04T17:52:13.374Z,28.08
2018-07-04T17:54:54.360Z,28.06
2018-07-04T17:57:35.056Z,27.94
2018-07-04T18:00:15.184Z,27.76
2018-07-04T18:02:55.207Z,27.80
2018-07-04T18:05:35.227Z,27.77
2018-07-04T18:08:16.589Z,27.78
2018-07-04T18:10:56.329Z,27.83
2018-07-04T18:13:36.707Z,27.70
2018-07-04T18:16:17.366Z,27.64
2018-07-04T18:18:58.144Z,27.62
2018-07-04T18:21:38.752Z,27.62
2018-07-04T18:24:18.499Z,27.58
2018-07-04T18:26:59.739Z,27.56
2018-07-04T18:29:39.356Z,27.54
2018-07-04T18:32:19.128Z,27.50
2018-07-04T18:34:59.023Z,27.45
2018-07-04T18:37:38.664Z,27.34
2018-07-04T18:40:18.337Z,27.20
2018-07-04T18:42:57.915Z,27.24
2018-07-04T18:45:39.033Z,27.23
2018-07-04T18:48:19.060Z,27.21
2018-07-04T18:50:59.209Z,27.17
2018-07-04T18:53:45.578Z,27.05
2018-07-04T18:56:25.284Z,27.10
2018-07-04T18:59:05.206Z,27.03
2018-07-04T19:01:45.167Z,27.07
2018-07-04T19:04:24.954Z,27.07
2018-07-04T19:07:06.260Z,27.04
2018-07-04T19:09:45.917Z,27.01
2018-07-04T19:12:25.922Z,26.99
2018-07-04T19:15:05.904Z,26.94
2018-07-04T19:17:46.169Z,26.90
2018-07-04T19:20:25.829Z,26.84
2018-07-04T19:23:05.596Z,26.80
2018-07-04T19:25:55.409Z,26.77
2018-07-04T19:28:35.263Z,26.62
2018-07-04T19:31:15.050Z,26.47
2018-07-04T19:33:55.094Z,26.38
2018-07-04T19:36:34.767Z,26.34
2018-07-04T19:39:14.536Z,26.32
2018-07-04T19:41:54.252Z,26.27
2018-07-04T19:44:34.159Z,26.26
2018-07-04T19:47:14.972Z,26.26
2018-07-04T19:49:55.120Z,26.25
2018-07-04T19:52:34.780Z,26.25
2018-07-04T19:55:14.449Z,26.18
2018-07-04T19:57:54.507Z,26.02
2018-07-04T20:00:34.727Z,25.95
2018-07-04T20:03:16.533Z,25.95
2018-07-04T20:05:56.297Z,25.91
2018-07-04T20:08:36.255Z,25.91
2018-07-04T20:11:16.062Z,25.82
2018-07-04T20:16:40.720Z,25.79
2018-07-04T20:19:20.831Z,25.74
2018-07-04T20:22:00.905Z,25.68
2018-07-04T20:24:40.717Z,25.64
2018-07-04T20:27:20.378Z,25.59
2018-07-04T20:30:00.276Z,25.54
2018-07-04T20:32:41.080Z,25.46
2018-07-04T20:35:21.159Z,25.35
2018-07-04T20:38:01.830Z,25.29
2018-07-04T20:40:41.617Z,25.31
2018-07-04T20:43:21.532Z,25.29
2018-07-04T20:46:01.283Z,25.20
2018-07-04T20:48:41.059Z,24.90
2018-07-04T20:51:20.979Z,24.76
2018-07-04T20:54:00.974Z,24.66
2018-07-04T20:56:41.011Z,24.60
2018-07-04T20:59:20.958Z,24.58
2018-07-04T21:02:01.520Z,24.60
2018-07-04T21:04:41.680Z,24.61
2018-07-04T21:07:22.120Z,24.56
2018-07-04T21:10:01.965Z,24.54
2018-07-04T21:12:41.834Z,24.53
2018-07-04T21:15:22.204Z,24.25
2018-07-04T21:18:02.112Z,24.19
2018-07-04T21:20:41.935Z,24.30
2018-07-04T21:23:21.736Z,24.28
2018-07-04T21:26:01.473Z,24.20
2018-07-04T21:28:41.278Z,24.24
2018-07-04T21:31:21.242Z,24.20
2018-07-04T21:34:01.531Z,24.17
2018-07-04T21:36:41.799Z,24.07
2018-07-04T21:39:21.902Z,24.01
2018-07-04T21:42:01.798Z,23.89
2018-07-04T21:44:41.712Z,23.72
2018-07-04T21:47:21.561Z,23.71
2018-07-04T21:50:01.459Z,23.67
2018-07-04T21:52:41.381Z,23.60
2018-07-04T21:55:21.317Z,23.56
2018-07-04T21:58:02.118Z,23.52
2018-07-04T22:00:41.713Z,23.44
2018-07-04T22:03:21.284Z,23.45
2018-07-04T22:06:01.271Z,23.44
2018-07-04T22:08:41.034Z,23.45
2018-07-04T22:11:20.814Z,23.48
2018-07-04T22:14:01.327Z,23.45
2018-07-04T22:16:41.268Z,23.35
2018-07-04T22:19:20.902Z,23.40
2018-07-04T22:22:03.738Z,23.40
2018-07-04T22:24:43.616Z,23.42
2018-07-04T22:27:23.447Z,23.43
2018-07-04T22:30:07.449Z,23.41
2018-07-04T22:32:47.092Z,23.25
2018-07-04T22:35:26.762Z,23.21
2018-07-04T22:38:06.924Z,23.14
2018-07-04T22:40:47.112Z,23.03
2018-07-04T22:43:26.603Z,23.08
2018-07-04T22:46:06.987Z,23.10
2018-07-04T22:48:46.856Z,22.87
2018-07-04T22:51:26.954Z,22.84
2018-07-04T22:54:07.092Z,22.92
2018-07-04T22:56:46.874Z,22.92
2018-07-04T22:59:26.999Z,22.93
2018-07-04T23:02:07.825Z,22.97
2018-07-04T23:04:47.731Z,22.98
2018-07-04T23:07:28.441Z,22.91
2018-07-04T23:10:08.182Z,22.83
2018-07-04T23:12:48.640Z,22.81
2018-07-04T23:15:29.056Z,22.67
2018-07-04T23:18:08.861Z,22.58
2018-07-04T23:20:48.735Z,22.61
2018-07-04T23:23:28.820Z,22.61
2018-07-04T23:26:09.143Z,22.53
2018-07-04T23:28:48.871Z,22.44
2018-07-04T23:31:29.117Z,22.45
2018-07-04T23:34:09.930Z,22.47
2018-07-04T23:36:50.176Z,22.12
2018-07-04T23:39:30.754Z,22.06
2018-07-04T23:42:10.530Z,21.88
2018-07-04T23:44:50.953Z,21.87
2018-07-04T23:47:31.144Z,21.84
2018-07-04T23:50:11.144Z,21.81
2018-07-04T23:52:50.744Z,21.95
2018-07-04T23:55:31.359Z,22.07
2018-07-04T23:58:11.663Z,22.13
